createdAt,value
2019-05-03T00:00:18.968Z,0.00
2019-05-03T00:01:18.869Z,0.00
2019-05-03T00:02:18.758Z,0.00
2019-05-03T00:03:18.654Z,0.00
2019-05-03T00:04:18.552Z,0.00
2019-05-03T00:05:18.446Z,0.00
2019-05-03T00:06:18.349Z,0.00
2019-05-03T00:07:18.240Z,0.00
2019-05-03T00:08:18.137Z,0.00
2019-05-03T00:09:18.033Z,0.00
2019-05-03T00:10:17.932Z,0.00
2019-05-03T00:11:17.827Z,0.00
2019-05-03T00:12:17.753Z,0.00
2019-05-03T00:13:17.678Z,0.00
2019-05-03T00:14:17.523Z,0.00
2019-05-03T00:15:17.412Z,0.00
2019-05-03T00:16:17.307Z,0.00
2019-05-03T00:17:17.204Z,0.00
2019-05-03T00:18:17.100Z,0.00
2019-05-03T00:19:16.997Z,0.00
2019-05-03T00:20:16.896Z,0.00
2019-05-03T00:21:16.794Z,0.00
2019-05-03T00:22:16.688Z,0.00
2019-05-03T00:23:16.585Z,0.00
2019-05-03T00:24:16.480Z,0.00
2019-05-03T00:25:16.377Z,0.00
2019-05-03T00:26:16.273Z,0.00
2019-05-03T00:27:16.170Z,0.00
2019-05-03T00:28:16.064Z,0.00
2019-05-03T00:29:15.978Z,0.00
2019-05-03T00:30:15.857Z,0.00
2019-05-03T00:31:15.758Z,0.00
2019-05-03T00:32:15.724Z,0.00
2019-05-03T00:33:15.545Z,0.00
2019-05-03T00:34:15.447Z,0.00
2019-05-03T00:35:15.343Z,0.00
2019-05-03T00:36:15.235Z,0.00
2019-05-03T00:37:15.133Z,0.00
2019-05-03T00:38:15.031Z,0.00
2019-05-03T00:39:14.928Z,0.00
2019-05-03T00:40:14.821Z,0.00
2019-05-03T00:41:14.720Z,0.00
2019-05-03T00:42:14.617Z,0.00
2019-05-03T00:43:14.514Z,0.00
2019-05-03T00:44:14.408Z,0.00
2019-05-03T00:45:14.307Z,0.00
2019-05-03T00:46:14.201Z,0.00
2019-05-03T00:47:14.109Z,0.00
2019-05-03T00:48:13.994Z,0.00
2019-05-03T00:49:13.892Z,0.00
2019-05-03T00:50:13.788Z,0.00
2019-05-03T00:51:13.707Z,0.00
2019-05-03T00:52:13.632Z,0.00
2019-05-03T00:53:13.479Z,0.00
2019-05-03T00:54:13.384Z,0.00
2019-05-03T00:55:16.905Z,0.00
2019-05-03T00:56:13.168Z,0.00
2019-05-03T00:57:13.068Z,0.00
2019-05-03T00:58:12.961Z,0.00
2019-05-03T00:59:12.882Z,0.00
2019-05-03T01:00:12.754Z,0.00
2019-05-03T01:01:12.651Z,0.00
2019-05-03T01:02:12.554Z,0.00
2019-05-03T01:03:12.628Z,0.00
2019-05-03T01:04:12.349Z,0.00
2019-05-03T01:05:12.251Z,0.00
2019-05-03T01:06:12.136Z,0.00
2019-05-03T01:07:12.032Z,0.00
2019-05-03T01:08:12.695Z,0.00
2019-05-03T01:09:11.895Z,0.00
2019-05-03T01:10:11.867Z,0.00
2019-05-03T01:11:12.640Z,0.00
2019-05-03T01:12:12.578Z,0.00
2019-05-03T01:13:12.336Z,0.00
2019-05-03T01:14:11.959Z,0.00
2019-05-03T01:15:12.378Z,0.00
2019-05-03T01:16:11.803Z,0.00
2019-05-03T01:17:11.741Z,0.00
2019-05-03T01:18:12.314Z,0.00
2019-05-03T01:19:12.062Z,0.00
2019-05-03T01:20:11.954Z,0.00
2019-05-03T01:21:11.714Z,0.00
2019-05-03T01:22:11.893Z,0.00
2019-05-03T01:23:12.350Z,0.00
2019-05-03T01:24:12.184Z,0.00
2019-05-03T01:25:11.927Z,0.00
2019-05-03T01:26:11.778Z,0.00
2019-05-03T01:27:09.960Z,0.00
2019-05-03T01:28:09.855Z,0.00
2019-05-03T01:29:09.751Z,0.00
2019-05-03T01:30:09.658Z,0.00
2019-05-03T01:31:09.590Z,0.00
2019-05-03T01:32:11.479Z,0.00
2019-05-03T01:33:09.340Z,0.00
2019-05-03T01:34:09.233Z,0.00
2019-05-03T01:35:09.131Z,0.00
2019-05-03T01:36:09.034Z,0.00
2019-05-03T01:37:08.925Z,0.00
2019-05-03T01:38:08.821Z,0.00
2019-05-03T01:39:08.721Z,0.00
2019-05-03T01:40:08.613Z,0.00
2019-05-03T01:41:08.512Z,0.00
2019-05-03T01:42:08.407Z,0.00
2019-05-03T01:43:08.303Z,0.00
2019-05-03T01:44:08.202Z,0.00
2019-05-03T01:45:08.096Z,0.00
2019-05-03T01:46:07.991Z,0.00
2019-05-03T01:47:07.891Z,0.00
2019-05-03T01:48:07.785Z,0.00
2019-05-03T01:49:07.680Z,0.00
2019-05-03T01:50:07.624Z,0.00
2019-05-03T01:51:07.497Z,0.00
2019-05-03T01:52:07.371Z,0.00
2019-05-03T01:53:07.267Z,0.00
2019-05-03T01:54:07.166Z,0.00
2019-05-03T01:55:07.062Z,0.00
2019-05-03T01:56:06.957Z,0.00
2019-05-03T01:57:06.853Z,0.00
2019-05-03T01:58:06.760Z,0.00
2019-05-03T01:59:06.644Z,0.00
2019-05-03T02:00:06.541Z,0.00
2019-05-03T02:01:06.437Z,0.00
2019-05-03T02:02:07.418Z,0.00
2019-05-03T02:03:06.232Z,0.00
2019-05-03T02:04:06.128Z,0.00
2019-05-03T02:05:06.024Z,0.00
2019-05-03T02:06:05.921Z,0.00
2019-05-03T02:07:05.817Z,0.00
2019-05-03T02:08:05.711Z,0.00
2019-05-03T02:09:05.606Z,0.00
2019-05-03T02:10:05.532Z,0.00
2019-05-03T02:11:05.410Z,0.00
2019-05-03T02:12:05.295Z,0.00
2019-05-03T02:13:05.195Z,0.00
2019-05-03T02:14:05.089Z,0.00
2019-05-03T02:15:04.984Z,0.00
2019-05-03T02:16:04.880Z,0.00
2019-05-03T02:17:04.776Z,0.00
2019-05-03T02:18:04.674Z,0.00
2019-05-03T02:19:04.571Z,0.00
2019-05-03T02:20:04.465Z,0.00
2019-05-03T02:21:04.363Z,0.00
2019-05-03T02:22:04.259Z,0.00
2019-05-03T02:23:04.156Z,0.00
2019-05-03T02:24:04.052Z,0.00
2019-05-03T02:25:03.948Z,0.00
2019-05-03T02:26:03.843Z,0.00
2019-05-03T02:27:03.739Z,0.00
2019-05-03T02:28:03.635Z,0.00
2019-05-03T02:29:03.585Z,0.00
2019-05-03T02:30:03.539Z,0.00
2019-05-03T02:31:03.703Z,0.00
2019-05-03T02:32:03.536Z,0.00
2019-05-03T02:33:04.001Z,0.00
2019-05-03T02:34:03.698Z,0.00
2019-05-03T02:35:02.955Z,0.00
2019-05-03T02:36:03.746Z,0.00
2019-05-03T02:37:03.265Z,0.00
2019-05-03T02:38:03.515Z,0.00
2019-05-03T02:39:02.912Z,0.00
2019-05-03T02:40:04.232Z,0.00
2019-05-03T02:41:02.903Z,0.00
2019-05-03T02:42:07.829Z,0.00
2019-05-03T02:43:02.082Z,0.00
2019-05-03T02:44:01.975Z,0.00
2019-05-03T02:45:01.894Z,0.00
2019-05-03T02:46:01.769Z,0.00
2019-05-03T02:47:01.672Z,0.00
2019-05-03T02:48:01.560Z,0.00
2019-05-03T02:49:01.512Z,0.00
2019-05-03T02:50:01.359Z,0.00
2019-05-03T02:51:01.250Z,0.00
2019-05-03T02:52:01.147Z,0.00
2019-05-03T02:53:01.041Z,0.00
2019-05-03T02:54:00.941Z,0.00
2019-05-03T02:55:00.839Z,0.00
2019-05-03T02:56:13.752Z,0.00
2019-05-03T02:57:00.630Z,0.00
2019-05-03T02:58:00.527Z,0.00
2019-05-03T02:59:00.421Z,0.00
2019-05-03T03:00:00.316Z,0.00
2019-05-03T03:01:00.213Z,0.00
2019-05-03T03:02:00.105Z,0.00
2019-05-03T03:03:00.005Z,0.00
2019-05-03T03:03:59.908Z,0.00
2019-05-03T03:04:59.797Z,0.00
2019-05-03T03:05:59.694Z,0.00
2019-05-03T03:06:59.586Z,0.00
2019-05-03T03:07:59.540Z,0.00
2019-05-03T03:08:59.396Z,0.00
2019-05-03T03:09:59.276Z,0.00
2019-05-03T03:10:59.173Z,0.00
2019-05-03T03:11:59.069Z,0.00
2019-05-03T03:12:58.967Z,0.00
2019-05-03T03:13:58.864Z,0.00
2019-05-03T03:14:58.757Z,0.00
2019-05-03T03:15:58.652Z,0.00
2019-05-03T03:16:58.550Z,0.00
2019-05-03T03:17:58.444Z,0.00
2019-05-03T03:18:58.345Z,0.00
2019-05-03T03:19:58.237Z,0.00
2019-05-03T03:20:58.132Z,0.00
2019-05-03T03:21:58.031Z,0.00
2019-05-03T03:22:57.923Z,0.00
2019-05-03T03:23:57.818Z,0.00
2019-05-03T03:24:57.713Z,0.00
2019-05-03T03:25:57.611Z,0.00
2019-05-03T03:26:57.520Z,0.00
2019-05-03T03:27:57.445Z,0.00
2019-05-03T03:28:57.297Z,0.00
2019-05-03T03:29:57.196Z,5.63
2019-05-03T03:30:57.692Z,5.63
2019-05-03T03:31:58.271Z,5.63
2019-05-03T03:32:57.851Z,5.63
2019-05-03T03:33:59.223Z,5.63
2019-05-03T03:35:02.664Z,5.63
2019-05-03T03:36:01.119Z,5.63
2019-05-03T03:37:04.385Z,5.63
2019-05-03T03:37:56.357Z,5.63
2019-05-03T03:38:56.255Z,5.63
2019-05-03T03:39:56.226Z,11.25
2019-05-03T03:40:58.766Z,11.25
2019-05-03T03:41:56.136Z,11.25
2019-05-03T03:42:55.919Z,11.25
2019-05-03T03:43:55.943Z,11.25
2019-05-03T03:44:56.319Z,11.25
2019-05-03T03:45:55.775Z,16.88
2019-05-03T03:46:56.113Z,16.88
2019-05-03T03:47:56.209Z,16.88
2019-05-03T03:48:55.903Z,16.88
2019-05-03T03:49:55.323Z,16.88
2019-05-03T03:50:56.182Z,16.88
2019-05-03T03:51:56.359Z,22.50
2019-05-03T03:52:55.745Z,22.50
2019-05-03T03:53:55.608Z,22.50
2019-05-03T03:54:55.377Z,22.50
2019-05-03T03:55:56.385Z,22.50
2019-05-03T03:57:02.996Z,28.13
2019-05-03T03:57:55.719Z,28.13
2019-05-03T03:58:55.586Z,28.13
2019-05-03T03:59:56.020Z,28.13
2019-05-03T04:00:55.516Z,33.75
2019-05-03T04:01:55.080Z,33.75
2019-05-03T04:02:55.314Z,33.75
2019-05-03T04:03:56.054Z,39.38
2019-05-03T04:04:55.997Z,39.38
2019-05-03T04:05:55.540Z,45.00
2019-05-03T04:06:55.727Z,50.63
2019-05-03T04:07:55.886Z,50.63
2019-05-03T04:08:55.980Z,56.25
2019-05-03T04:09:53.013Z,61.88
2019-05-03T04:10:55.713Z,61.88
2019-05-03T04:11:52.800Z,67.50
2019-05-03T04:12:52.695Z,67.50
2019-05-03T04:13:52.588Z,67.50
2019-05-03T04:14:52.495Z,73.13
2019-05-03T04:15:52.384Z,73.13
2019-05-03T04:16:52.276Z,73.13
2019-05-03T04:17:52.168Z,73.13
2019-05-03T04:18:52.072Z,78.75
2019-05-03T04:19:51.962Z,78.75
2019-05-03T04:20:51.857Z,84.38
2019-05-03T04:21:51.753Z,90.00
2019-05-03T04:22:51.647Z,90.00
2019-05-03T04:23:51.543Z,101.25
2019-05-03T04:24:51.441Z,118.13
2019-05-03T04:25:51.368Z,135.00
2019-05-03T04:26:51.228Z,135.00
2019-05-03T04:27:51.121Z,135.00
2019-05-03T04:28:51.014Z,123.75
2019-05-03T04:29:50.915Z,123.75
2019-05-03T04:30:50.808Z,129.38
2019-05-03T04:31:50.703Z,140.63
2019-05-03T04:32:50.599Z,146.25
2019-05-03T04:33:50.496Z,135.00
2019-05-03T04:34:50.393Z,129.38
2019-05-03T04:35:50.283Z,123.75
2019-05-03T04:36:50.180Z,129.38
2019-05-03T04:37:50.076Z,129.38
2019-05-03T04:38:49.969Z,135.00
2019-05-03T04:39:49.876Z,135.00
2019-05-03T04:40:49.763Z,135.00
2019-05-03T04:41:49.660Z,135.00
2019-05-03T04:42:49.557Z,146.25
2019-05-03T04:43:49.451Z,157.50
2019-05-03T04:44:49.378Z,219.38
2019-05-03T04:45:49.243Z,281.25
2019-05-03T04:46:49.137Z,281.25
2019-05-03T04:47:49.034Z,264.38
2019-05-03T04:48:48.936Z,275.63
2019-05-03T04:49:48.830Z,258.75
2019-05-03T04:50:48.720Z,230.63
2019-05-03T04:51:48.619Z,230.63
2019-05-03T04:52:48.535Z,247.50
2019-05-03T04:53:48.417Z,286.88
2019-05-03T04:54:48.308Z,247.50
2019-05-03T04:55:48.212Z,185.63
2019-05-03T04:56:48.102Z,180.00
2019-05-03T04:57:50.439Z,174.38
2019-05-03T04:58:47.904Z,174.38
2019-05-03T04:59:47.795Z,180.00
2019-05-03T05:00:47.690Z,180.00
2019-05-03T05:01:47.586Z,174.38
2019-05-03T05:02:47.485Z,180.00
2019-05-03T05:03:47.395Z,180.00
2019-05-03T05:04:47.319Z,174.38
2019-05-03T05:05:47.176Z,174.38
2019-05-03T05:06:47.072Z,168.75
2019-05-03T05:07:46.969Z,157.50
2019-05-03T05:08:46.864Z,151.88
2019-05-03T05:09:46.762Z,151.88
2019-05-03T05:10:46.662Z,151.88
2019-05-03T05:11:46.553Z,151.88
2019-05-03T05:12:46.452Z,151.88
2019-05-03T05:13:46.367Z,157.50
2019-05-03T05:14:46.249Z,157.50
2019-05-03T05:15:46.229Z,151.88
2019-05-03T05:16:46.533Z,157.50
2019-05-03T05:17:46.117Z,168.75
2019-05-03T05:18:45.879Z,185.63
2019-05-03T05:19:45.729Z,185.63
2019-05-03T05:20:45.623Z,191.25
2019-05-03T05:21:45.523Z,247.50
2019-05-03T05:22:45.528Z,270.00
2019-05-03T05:23:45.367Z,309.38
2019-05-03T05:24:45.235Z,416.25
2019-05-03T05:25:45.106Z,450.00
2019-05-03T05:26:45.006Z,461.25
2019-05-03T05:27:51.387Z,455.63
2019-05-03T05:28:44.906Z,461.25
2019-05-03T05:29:45.035Z,466.88
2019-05-03T05:30:44.592Z,472.50
2019-05-03T05:31:44.677Z,495.00
2019-05-03T05:32:45.386Z,523.13
2019-05-03T05:33:44.613Z,551.25
2019-05-03T05:34:45.936Z,579.38
2019-05-03T05:35:44.383Z,607.50
2019-05-03T05:36:45.070Z,635.63
2019-05-03T05:37:44.429Z,663.75
2019-05-03T05:38:45.040Z,680.63
2019-05-03T05:39:44.735Z,686.25
2019-05-03T05:40:45.099Z,691.88
2019-05-03T05:41:44.981Z,703.13
2019-05-03T05:42:45.270Z,590.63
2019-05-03T05:43:44.664Z,635.63
2019-05-03T05:44:45.244Z,646.88
2019-05-03T05:45:44.816Z,703.13
2019-05-03T05:46:42.963Z,714.38
2019-05-03T05:47:44.764Z,708.75
2019-05-03T05:48:42.761Z,691.88
2019-05-03T05:49:44.227Z,669.38
2019-05-03T05:50:42.562Z,691.88
2019-05-03T05:51:44.344Z,680.63
2019-05-03T05:52:42.357Z,624.38
2019-05-03T05:53:42.257Z,652.50
2019-05-03T05:54:42.159Z,450.00
2019-05-03T05:55:42.056Z,348.75
2019-05-03T05:56:41.964Z,517.50
2019-05-03T05:57:41.857Z,556.88
2019-05-03T05:58:41.758Z,630.00
2019-05-03T05:59:41.657Z,787.50
2019-05-03T06:00:41.556Z,787.50
2019-05-03T06:01:41.455Z,787.50
2019-05-03T06:02:41.358Z,815.63
2019-05-03T06:03:41.317Z,253.13
2019-05-03T06:04:41.236Z,888.75
2019-05-03T06:05:41.057Z,810.00
2019-05-03T06:06:40.956Z,770.63
2019-05-03T06:07:40.857Z,776.25
2019-05-03T06:08:40.760Z,793.13
2019-05-03T06:09:40.657Z,798.75
2019-05-03T06:10:40.560Z,821.25
2019-05-03T06:11:40.458Z,348.75
2019-05-03T06:12:40.361Z,849.38
2019-05-03T06:13:40.261Z,871.88
2019-05-03T06:14:40.164Z,303.75
2019-05-03T06:15:40.063Z,900.00
2019-05-03T06:16:39.961Z,613.13
2019-05-03T06:17:39.865Z,517.50
2019-05-03T06:18:39.767Z,376.88
2019-05-03T06:19:39.668Z,270.00
2019-05-03T06:20:39.568Z,601.88
2019-05-03T06:21:39.471Z,1018.13
2019-05-03T06:22:39.370Z,1051.88
2019-05-03T06:23:39.294Z,720.00
2019-05-03T06:24:39.232Z,410.63
2019-05-03T06:25:39.073Z,1035.00
2019-05-03T06:26:38.975Z,1040.63
2019-05-03T06:27:38.875Z,928.13
2019-05-03T06:28:38.774Z,1102.50
2019-05-03T06:29:38.678Z,945.00
2019-05-03T06:30:38.578Z,1153.13
2019-05-03T06:31:38.481Z,1085.63
2019-05-03T06:32:38.381Z,1108.13
2019-05-03T06:33:38.285Z,1175.63
2019-05-03T06:34:38.185Z,388.13
2019-05-03T06:35:38.090Z,399.38
2019-05-03T06:36:37.989Z,388.13
2019-05-03T06:37:37.890Z,1400.63
2019-05-03T06:38:37.792Z,2137.50
2019-05-03T06:39:37.691Z,714.38
2019-05-03T06:40:37.593Z,866.25
2019-05-03T06:41:37.496Z,618.75
2019-05-03T06:42:37.403Z,1918.13
2019-05-03T06:43:39.614Z,2295.00
2019-05-03T06:44:37.268Z,1839.38
2019-05-03T06:45:41.044Z,2131.88
2019-05-03T06:46:37.006Z,388.13
2019-05-03T06:47:40.418Z,421.88
2019-05-03T06:48:36.810Z,444.38
2019-05-03T06:49:39.364Z,540.00
2019-05-03T06:50:36.613Z,517.50
2019-05-03T06:51:39.972Z,450.00
2019-05-03T06:52:36.421Z,2244.38
2019-05-03T06:53:36.321Z,506.25
2019-05-03T06:54:37.873Z,2328.75
2019-05-03T06:55:40.053Z,2289.38
2019-05-03T06:56:36.025Z,230.63
2019-05-03T06:57:40.149Z,511.88
2019-05-03T06:58:36.495Z,2328.75
2019-05-03T06:59:35.955Z,2362.50
2019-05-03T07:00:35.631Z,2446.88
2019-05-03T07:01:35.531Z,2581.88
2019-05-03T07:02:35.570Z,2565.00
2019-05-03T07:03:35.439Z,421.88
2019-05-03T07:04:35.271Z,500.63
2019-05-03T07:05:35.492Z,2525.63
2019-05-03T07:06:40.304Z,1147.50
2019-05-03T07:07:35.415Z,2401.88
2019-05-03T07:08:34.845Z,309.38
2019-05-03T07:09:35.365Z,2452.50
2019-05-03T07:10:35.258Z,2401.88
2019-05-03T07:11:34.863Z,2548.13
2019-05-03T07:12:35.404Z,2373.75
2019-05-03T07:13:34.624Z,2694.38
2019-05-03T07:14:34.961Z,2671.88
2019-05-03T07:15:35.127Z,2778.75
2019-05-03T07:16:35.307Z,2086.88
2019-05-03T07:17:35.036Z,2430.00
2019-05-03T07:18:35.139Z,551.25
2019-05-03T07:19:35.398Z,438.75
2019-05-03T07:20:35.260Z,528.75
2019-05-03T07:21:35.294Z,2896.88
2019-05-03T07:22:35.167Z,2863.13
2019-05-03T07:23:35.029Z,2790.00
2019-05-03T07:24:35.455Z,2823.75
2019-05-03T07:25:34.449Z,995.63
2019-05-03T07:26:34.422Z,2250.00
2019-05-03T07:27:34.874Z,2913.75
2019-05-03T07:28:44.452Z,2413.13
2019-05-03T07:29:32.792Z,2514.38
2019-05-03T07:30:35.159Z,3206.25
2019-05-03T07:31:32.597Z,3054.38
2019-05-03T07:32:32.501Z,3161.25
2019-05-03T07:33:34.517Z,3155.63
2019-05-03T07:34:32.309Z,2964.38
2019-05-03T07:35:32.212Z,438.75
2019-05-03T07:36:32.117Z,292.50
2019-05-03T07:37:32.020Z,388.13
2019-05-03T07:38:31.924Z,697.50
2019-05-03T07:39:31.829Z,781.88
2019-05-03T07:40:31.733Z,641.25
2019-05-03T07:41:31.634Z,534.38
2019-05-03T07:42:31.537Z,725.63
2019-05-03T07:43:31.440Z,748.13
2019-05-03T07:44:31.341Z,523.13
2019-05-03T07:45:31.244Z,326.25
2019-05-03T07:46:31.825Z,281.25
2019-05-03T07:47:31.117Z,343.13
2019-05-03T07:48:30.951Z,540.00
2019-05-03T07:49:30.855Z,585.00
2019-05-03T07:50:32.931Z,556.88
2019-05-03T07:51:30.661Z,444.38
2019-05-03T07:52:30.557Z,444.38
2019-05-03T07:53:30.461Z,438.75
2019-05-03T07:54:30.364Z,511.88
2019-05-03T07:55:30.264Z,613.13
2019-05-03T07:56:30.163Z,528.75
2019-05-03T07:57:30.070Z,641.25
2019-05-03T07:58:29.968Z,691.88
2019-05-03T07:59:29.868Z,596.25
2019-05-03T08:00:29.806Z,455.63
2019-05-03T08:01:29.673Z,376.88
2019-05-03T08:02:29.573Z,348.75
2019-05-03T08:03:29.472Z,438.75
2019-05-03T08:04:29.373Z,427.50
2019-05-03T08:05:29.274Z,427.50
2019-05-03T08:06:29.175Z,450.00
2019-05-03T08:07:29.105Z,483.75
2019-05-03T08:08:28.973Z,534.38
2019-05-03T08:09:28.878Z,618.75
2019-05-03T08:10:28.777Z,641.25
2019-05-03T08:11:28.677Z,528.75
2019-05-03T08:12:28.575Z,433.13
2019-05-03T08:13:28.484Z,483.75
2019-05-03T08:14:28.384Z,534.38
2019-05-03T08:15:28.279Z,478.13
2019-05-03T08:16:28.176Z,708.75
2019-05-03T08:17:28.077Z,821.25
2019-05-03T08:18:27.977Z,703.13
2019-05-03T08:19:27.875Z,652.50
2019-05-03T08:20:27.776Z,759.38
2019-05-03T08:21:27.679Z,686.25
2019-05-03T08:22:27.578Z,483.75
2019-05-03T08:23:30.202Z,410.63
2019-05-03T08:24:27.375Z,376.88
2019-05-03T08:25:27.276Z,500.63
2019-05-03T08:26:27.178Z,663.75
2019-05-03T08:27:27.136Z,731.25
2019-05-03T08:28:26.991Z,511.88
2019-05-03T08:29:26.876Z,613.13
2019-05-03T08:30:26.777Z,630.00
2019-05-03T08:31:26.710Z,776.25
2019-05-03T08:32:26.578Z,776.25
2019-05-03T08:33:26.476Z,950.63
2019-05-03T08:34:26.376Z,787.50
2019-05-03T08:35:26.275Z,523.13
2019-05-03T08:36:26.176Z,348.75
2019-05-03T08:37:27.957Z,309.38
2019-05-03T08:38:25.989Z,360.00
2019-05-03T08:39:25.876Z,534.38
2019-05-03T08:40:25.773Z,478.13
2019-05-03T08:41:25.674Z,523.13
2019-05-03T08:42:25.614Z,669.38
2019-05-03T08:43:25.624Z,916.88
2019-05-03T08:44:25.372Z,1423.13
2019-05-03T08:45:25.612Z,2407.50
2019-05-03T08:46:25.485Z,3538.13
2019-05-03T08:47:25.121Z,1276.88
2019-05-03T08:48:25.147Z,3915.00
2019-05-03T08:49:25.484Z,3881.25
2019-05-03T08:50:25.664Z,3211.88
2019-05-03T08:51:25.051Z,4134.38
2019-05-03T08:52:24.790Z,736.88
2019-05-03T08:53:25.607Z,624.38
2019-05-03T08:54:25.517Z,1327.50
2019-05-03T08:55:24.962Z,1423.13
2019-05-03T08:56:24.595Z,348.75
2019-05-03T08:57:25.348Z,354.38
2019-05-03T08:58:25.566Z,590.63
2019-05-03T08:59:29.787Z,3971.25
2019-05-03T09:00:24.917Z,4021.88
2019-05-03T09:01:25.102Z,4044.38
2019-05-03T09:02:25.600Z,4123.13
2019-05-03T09:03:24.917Z,4162.50
2019-05-03T09:04:34.280Z,877.50
2019-05-03T09:05:24.882Z,455.63
2019-05-03T09:06:24.821Z,922.50
2019-05-03T09:07:25.147Z,500.63
2019-05-03T09:08:24.919Z,500.63
2019-05-03T09:09:22.862Z,450.00
2019-05-03T09:10:24.862Z,461.25
2019-05-03T09:11:31.869Z,4207.50
2019-05-03T09:12:22.565Z,4246.88
2019-05-03T09:13:22.466Z,4140.00
2019-05-03T09:14:24.321Z,4173.75
2019-05-03T09:15:22.270Z,4134.38
2019-05-03T09:16:22.259Z,4151.25
2019-05-03T09:17:22.075Z,4230.00
2019-05-03T09:18:21.977Z,4342.50
2019-05-03T09:19:21.926Z,4415.63
2019-05-03T09:20:21.783Z,4561.88
2019-05-03T09:21:21.689Z,866.25
2019-05-03T09:22:21.678Z,4404.38
2019-05-03T09:23:23.316Z,4455.00
2019-05-03T09:24:21.483Z,596.25
2019-05-03T09:25:21.388Z,444.38
2019-05-03T09:26:21.296Z,399.38
2019-05-03T09:27:21.115Z,393.75
2019-05-03T09:28:21.064Z,455.63
2019-05-03T09:29:21.010Z,568.13
2019-05-03T09:30:20.829Z,731.25
2019-05-03T09:31:20.733Z,4140.00
2019-05-03T09:32:20.637Z,2851.88
2019-05-03T09:33:20.629Z,4055.63
2019-05-03T09:34:20.531Z,742.50
2019-05-03T09:35:29.812Z,562.50
2019-05-03T09:36:20.336Z,652.50
2019-05-03T09:37:20.157Z,438.75
2019-05-03T09:38:20.061Z,545.63
2019-05-03T09:39:19.966Z,4275.00
2019-05-03T09:40:19.880Z,3735.00
2019-05-03T09:41:19.774Z,3937.50
2019-05-03T09:42:19.677Z,3493.13
2019-05-03T09:43:19.666Z,3673.13
2019-05-03T09:44:19.577Z,3875.63
2019-05-03T09:45:19.474Z,4246.88
2019-05-03T09:46:19.293Z,4320.00
2019-05-03T09:47:19.198Z,4224.38
2019-05-03T09:48:19.102Z,4196.25
2019-05-03T09:49:19.036Z,4556.25
2019-05-03T09:50:18.965Z,894.38
2019-05-03T09:51:18.819Z,1085.63
2019-05-03T09:52:18.725Z,922.50
2019-05-03T09:53:18.632Z,1035.00
2019-05-03T09:54:18.537Z,1198.13
2019-05-03T09:55:18.443Z,646.88
2019-05-03T09:56:18.348Z,421.88
2019-05-03T09:57:18.339Z,444.38
2019-05-03T09:58:18.256Z,472.50
2019-05-03T09:59:18.149Z,506.25
2019-05-03T10:00:18.055Z,511.88
2019-05-03T10:01:17.875Z,489.38
2019-05-03T10:02:17.781Z,506.25
2019-05-03T10:03:17.686Z,630.00
2019-05-03T10:04:18.113Z,4269.38
2019-05-03T10:05:17.527Z,4466.25
2019-05-03T10:06:17.655Z,888.75
2019-05-03T10:07:17.303Z,534.38
2019-05-03T10:08:17.208Z,759.38
2019-05-03T10:09:17.111Z,1096.88
2019-05-03T10:10:17.023Z,579.38
2019-05-03T10:11:16.942Z,534.38
2019-05-03T10:12:16.823Z,646.88
2019-05-03T10:14:16.628Z,2632.50
2019-05-03T10:15:16.532Z,1265.63
2019-05-03T10:16:16.437Z,810.00
2019-05-03T10:17:16.344Z,646.88
2019-05-03T10:18:16.243Z,590.63
2019-05-03T10:19:16.229Z,585.00
2019-05-03T10:20:16.049Z,658.13
2019-05-03T10:21:15.952Z,708.75
2019-05-03T10:22:15.856Z,765.00
2019-05-03T10:23:15.757Z,804.38
2019-05-03T10:24:15.720Z,3031.88
2019-05-03T10:25:15.563Z,3245.63
2019-05-03T10:26:15.468Z,3082.50
2019-05-03T10:27:15.369Z,3228.75
2019-05-03T10:28:15.340Z,3206.25
2019-05-03T10:29:15.292Z,3498.75
2019-05-03T10:30:17.049Z,2238.75
2019-05-03T10:31:14.990Z,1991.25
2019-05-03T10:32:15.261Z,4230.00
2019-05-03T10:33:15.550Z,793.13
2019-05-03T10:34:15.528Z,916.88
2019-05-03T10:35:15.164Z,826.88
2019-05-03T10:36:15.414Z,1569.38
2019-05-03T10:37:15.162Z,3583.13
2019-05-03T10:38:15.173Z,2475.00
2019-05-03T10:39:15.459Z,1096.88
2019-05-03T10:40:14.119Z,697.50
2019-05-03T10:41:14.023Z,596.25
2019-05-03T10:42:13.936Z,483.75
2019-05-03T10:43:13.831Z,382.50
2019-05-03T10:44:15.080Z,337.50
2019-05-03T10:45:15.265Z,309.38
2019-05-03T10:46:15.703Z,292.50
2019-05-03T10:47:14.673Z,258.75
2019-05-03T10:48:15.294Z,236.25
2019-05-03T10:49:15.163Z,230.63
2019-05-03T10:50:15.454Z,230.63
2019-05-03T10:51:15.363Z,253.13
2019-05-03T10:52:14.916Z,264.38
2019-05-03T10:53:12.893Z,275.63
2019-05-03T10:54:14.520Z,281.25
2019-05-03T10:55:12.671Z,320.63
2019-05-03T10:56:13.912Z,1074.38
2019-05-03T10:57:12.476Z,1383.75
2019-05-03T10:58:12.378Z,495.00
2019-05-03T10:59:12.289Z,523.13
2019-05-03T11:00:39.285Z,815.63
2019-05-03T11:01:12.085Z,2148.75
2019-05-03T11:02:11.983Z,2806.88
2019-05-03T11:03:11.892Z,900.00
2019-05-03T11:04:11.796Z,843.75
2019-05-03T11:05:11.692Z,804.38
2019-05-03T11:06:11.596Z,590.63
2019-05-03T11:07:11.501Z,410.63
2019-05-03T11:08:11.402Z,275.63
2019-05-03T11:09:11.307Z,202.50
2019-05-03T11:10:11.218Z,180.00
2019-05-03T11:11:11.109Z,180.00
2019-05-03T11:12:11.011Z,185.63
2019-05-03T11:13:10.944Z,202.50
2019-05-03T11:14:10.871Z,241.88
2019-05-03T11:15:10.717Z,303.75
2019-05-03T11:16:10.620Z,433.13
2019-05-03T11:17:10.523Z,1046.25
2019-05-03T11:18:10.426Z,838.13
2019-05-03T11:19:10.327Z,1485.00
2019-05-03T11:20:10.227Z,1580.63
2019-05-03T11:21:10.130Z,1057.50
2019-05-03T11:22:10.030Z,894.38
2019-05-03T11:23:09.931Z,781.88
2019-05-03T11:24:09.834Z,725.63
2019-05-03T11:25:09.735Z,708.75
2019-05-03T11:26:09.642Z,703.13
2019-05-03T11:27:09.541Z,697.50
2019-05-03T11:28:09.443Z,720.00
2019-05-03T11:29:09.345Z,821.25
2019-05-03T11:30:09.588Z,905.63
2019-05-03T11:31:09.148Z,810.00
2019-05-03T11:32:10.728Z,686.25
2019-05-03T11:33:08.955Z,641.25
2019-05-03T11:34:08.917Z,573.75
2019-05-03T11:35:11.368Z,579.38
2019-05-03T11:36:08.661Z,540.00
2019-05-03T11:37:08.560Z,495.00
2019-05-03T11:38:08.466Z,461.25
2019-05-03T11:39:08.368Z,489.38
2019-05-03T11:40:08.272Z,568.13
2019-05-03T11:41:08.173Z,618.75
2019-05-03T11:42:08.073Z,675.00
2019-05-03T11:43:07.976Z,652.50
2019-05-03T11:44:07.882Z,669.38
2019-05-03T11:45:07.781Z,714.38
2019-05-03T11:46:07.681Z,765.00
2019-05-03T11:47:07.583Z,838.13
2019-05-03T11:48:07.487Z,945.00
2019-05-03T11:49:07.386Z,961.88
2019-05-03T11:50:07.291Z,967.50
2019-05-03T11:51:07.191Z,990.00
2019-05-03T11:52:07.095Z,950.63
2019-05-03T11:53:07.004Z,995.63
2019-05-03T11:54:06.898Z,933.75
2019-05-03T11:55:11.351Z,888.75
2019-05-03T11:56:06.702Z,838.13
2019-05-03T11:57:06.604Z,849.38
2019-05-03T11:58:06.508Z,787.50
2019-05-03T11:59:06.408Z,826.88
2019-05-03T12:00:06.319Z,1310.63
2019-05-03T12:01:12.990Z,883.13
2019-05-03T12:02:06.114Z,2266.88
2019-05-03T12:03:06.013Z,776.25
2019-05-03T12:04:05.920Z,765.00
2019-05-03T12:05:05.825Z,1170.00
2019-05-03T12:06:05.730Z,826.88
2019-05-03T12:07:05.946Z,759.38
2019-05-03T12:08:05.571Z,849.38
2019-05-03T12:09:05.680Z,810.00
2019-05-03T12:10:15.038Z,720.00
2019-05-03T12:11:05.761Z,731.25
2019-05-03T12:12:05.138Z,821.25
2019-05-03T12:13:05.199Z,725.63
2019-05-03T12:14:06.872Z,658.13
2019-05-03T12:15:04.852Z,635.63
2019-05-03T12:16:14.835Z,568.13
2019-05-03T12:17:18.891Z,551.25
2019-05-03T12:18:05.973Z,613.13
2019-05-03T12:19:16.576Z,528.75
2019-05-03T12:20:07.200Z,556.88
2019-05-03T12:21:07.398Z,635.63
2019-05-03T12:22:06.226Z,607.50
2019-05-03T12:23:06.117Z,630.00
2019-05-03T12:24:06.205Z,635.63
2019-05-03T12:25:09.833Z,669.38
2019-05-03T12:26:08.644Z,691.88
2019-05-03T12:27:04.725Z,630.00
2019-05-03T12:28:05.880Z,601.88
2019-05-03T12:29:04.602Z,725.63
2019-05-03T12:30:04.991Z,815.63
2019-05-03T12:31:04.886Z,866.25
2019-05-03T12:32:05.108Z,871.88
2019-05-03T12:33:05.684Z,855.00
2019-05-03T12:34:03.027Z,843.75
2019-05-03T12:35:02.878Z,821.25
2019-05-03T12:36:05.156Z,860.63
2019-05-03T12:37:04.956Z,911.25
2019-05-03T12:38:05.163Z,911.25
2019-05-03T12:39:02.483Z,911.25